Time;durP1;ratioP1;P1;durP2;ratioP2;P2;SDS_P1;SDS_P2;PMS_P1;PMS_P2;Temp;Humidity;BMP_temperature;BMP_pressure;BME280_temperature;BME280_humidity;BME280_pressure;Samples;Min_cycle;Max_cycle;Signal;HPM_P1;HPM_P2
2021/05/25 00:00:09;;;;;;;;;;;;;;;23.05;60.41;101429.24;1761272;80;20230;-54
2021/05/25 00:02:36;;;;;;;;;;;;;;;23.08;60.42;101420.30;1763697;79;20350;-55
2021/05/25 00:05:04;;;;;;;;;;;;;;;23.13;60.41;101419.31;1743491;80;20350;-52
2021/05/25 00:07:30;;;;;;;;;;;;;;;23.17;60.43;101421.69;1744687;80;21076;-54
2021/05/25 00:09:56;;;;;;;;;;;;;;;23.20;60.40;101411.36;1766863;79;20277;-55
2021/05/25 00:12:21;;;;;;;;;;;;;;;23.24;60.39;101413.73;1763589;80;20697;-53
2021/05/25 00:14:47;;;;;;;;;;;;;;;23.28;60.36;101412.52;1750425;80;21943;-54
2021/05/25 00:17:13;;;;;;;;;;;;;;;23.30;60.32;101404.70;1750828;80;20289;-53
2021/05/25 00:19:39;;;;;;;;;;;;;;;23.31;60.27;101406.31;1748677;81;21049;-55
2021/05/25 00:22:05;;;;;;;;;;;;;;;23.31;60.21;101399.37;1759571;79;20273;-55
2021/05/25 00:24:33;;;;;;;;;;;;;;;23.30;60.17;101399.16;1759365;79;20505;-55
2021/05/25 00:26:58;;;;;;;;;;;;;;;23.30;60.12;101397.77;1740007;80;20777;-55
2021/05/25 00:29:24;;;;;;;;;;;;;;;23.27;60.07;101392.27;1746947;80;20491;-56
2021/05/25 00:31:51;;;;;;;;;;;;;;;23.25;60.03;101386.80;1747340;80;20967;-54
2021/05/25 00:34:16;;;;;;;;;;;;;;;23.21;59.99;101388.02;1753401;80;20232;-55
2021/05/25 00:36:42;;;;;;;;;;;;;;;23.18;59.99;101381.13;1766933;79;20209;-55
2021/05/25 00:39:08;;;;;;;;;;;;;;;23.17;59.97;101388.38;1765290;80;20286;-55
2021/05/25 00:41:36;;;;;;;;;;;;;;;23.13;59.97;101381.84;1764073;79;20545;-54
2021/05/25 00:44:04;;;;;;;;;;;;;;;23.09;59.96;101373.91;1767280;79;21876;-55
2021/05/25 00:46:30;;;;;;;;;;;;;;;23.05;59.98;101373.73;1744420;80;20261;-55
2021/05/25 00:48:56;;;;;;;;;;;;;;;23.02;59.97;101381.32;1750585;80;20274;-53
2021/05/25 00:51:21;;;;;;;;;;;;;;;23.00;60.00;101381.41;1765718;80;20243;-55
2021/05/25 00:53:47;;;;;;;;;;;;;;;22.97;59.99;101383.41;1721467;82;20232;-55
2021/05/25 00:56:13;;;;;;;;;;;;;;;22.94;60.06;101383.49;1721446;82;20898;-55
2021/05/25 00:58:39;;;;;;;;;;;;;;;22.90;60.04;101374.17;1728902;82;20268;-56
2021/05/25 01:01:05;;;;;;;;;;;;;;;22.88;60.08;101380.59;1749668;81;20208;-55
2021/05/25 01:03:31;;;;;;;;;;;;;;;22.85;60.08;101382.63;1756212;80;20586;-55
2021/05/25 01:05:57;;;;;;;;;;;;;;;22.82;60.10;101373.56;1739451;81;20710;-56
2021/05/25 01:08:24;;;;;;;;;;;;;;;22.80;60.15;101375.00;1711992;82;23345;-53
2021/05/25 01:10:53;;;;;;;;;;;;;;;22.78;60.17;101371.74;1717808;82;20215;-55
2021/05/25 01:13:27;;;;;;;;;;;;;;;22.75;60.18;101364.30;1709743;82;20270;-55
2021/05/25 01:15:51;;;;;;;;;;;;;;;22.73;60.21;101361.60;1713778;82;20211;-56
2021/05/25 01:18:18;;;;;;;;;;;;;;;22.72;60.23;101364.12;1713409;82;20306;-54
2021/05/25 01:20:46;;;;;;;;;;;;;;;22.68;60.25;101363.91;1710074;82;21298;-54
2021/05/25 01:23:12;;;;;;;;;;;;;;;22.67;60.27;101354.51;1712352;82;20273;-55
2021/05/25 01:25:39;;;;;;;;;;;;;;;22.64;60.27;101352.37;1712843;82;20284;-55
2021/05/25 01:28:06;;;;;;;;;;;;;;;22.63;60.29;101356.28;1694697;83;20453;-55
2021/05/25 01:30:34;;;;;;;;;;;;;;;22.62;60.30;101351.87;1709117;83;20270;-55
2021/05/25 01:33:00;;;;;;;;;;;;;;;22.60;60.32;101351.38;1707269;82;21956;-52
2021/05/25 01:35:26;;;;;;;;;;;;;;;22.59;60.33;101351.13;1708971;82;20254;-54
2021/05/25 01:37:52;;;;;;;;;;;;;;;22.58;60.35;101346.70;1707598;82;20598;-55
2021/05/25 01:40:18;;;;;;;;;;;;;;;22.56;60.38;101346.22;1711999;82;20377;-55
2021/05/25 01:42:44;;;;;;;;;;;;;;;22.55;60.39;101342.63;1712171;82;20224;-55
2021/05/25 01:45:25;;;;;;;;;;;;;;;22.54;60.39;101345.70;1709042;82;21709;-55
2021/05/25 01:47:52;;;;;;;;;;;;;;;22.52;60.42;101347.43;1708097;82;20241;-55
2021/05/25 01:50:18;;;;;;;;;;;;;;;22.51;60.43;101354.11;1715383;82;20469;-55
2021/05/25 01:52:59;;;;;;;;;;;;;;;22.49;60.46;101343.09;1710735;82;20533;-55
2021/05/25 01:55:28;;;;;;;;;;;;;;;22.49;60.47;101338.94;1709723;82;20587;-55
2021/05/25 01:58:14;;;;;;;;;;;;;;;22.47;60.45;101335.64;1707219;82;20427;-55
2021/05/25 02:00:43;;;;;;;;;;;;;;;22.46;60.46;101340.94;1705340;82;20248;-56
2021/05/25 02:03:10;;;;;;;;;;;;;;;22.45;60.48;101325.45;1720843;81;20219;-55
2021/05/25 02:05:36;;;;;;;;;;;;;;;22.44;60.50;101326.59;1768977;79;20600;-55
2021/05/25 02:08:02;;;;;;;;;;;;;;;22.44;60.52;101323.81;1767310;79;20267;-54
2021/05/25 02:10:33;;;;;;;;;;;;;;;22.42;60.52;101320.52;1767918;80;21086;-55
2021/05/25 02:13:01;;;;;;;;;;;;;;;22.41;60.55;101310.56;1767881;79;20532;-54
2021/05/25 02:15:27;;;;;;;;;;;;;;;22.40;60.55;101307.00;1766821;80;20300;-55
2021/05/25 02:17:53;;;;;;;;;;;;;;;22.39;60.56;101306.74;1764454;79;20581;-56
2021/05/25 02:20:19;;;;;;;;;;;;;;;22.38;60.58;101302.33;1764625;79;20287;-53
2021/05/25 02:22:45;;;;;;;;;;;;;;;22.38;60.57;101301.50;1766462;79;21137;-54
2021/05/25 02:25:11;;;;;;;;;;;;;;;22.36;60.59;101304.61;1766338;79;20215;-55
2021/05/25 02:27:37;;;;;;;;;;;;;;;22.35;60.61;101305.73;1763892;79;20267;-54
2021/05/25 02:30:04;;;;;;;;;;;;;;;22.34;60.61;101317.96;1761695;79;20213;-53
2021/05/25 02:32:30;;;;;;;;;;;;;;;22.37;60.59;101313.16;1764402;79;20782;-55
2021/05/25 02:34:56;;;;;;;;;;;;;;;22.40;60.62;101320.04;1765650;79;20983;-56
2021/05/25 02:37:22;;;;;;;;;;;;;;;22.41;60.63;101322.48;1765218;80;20210;-55
2021/05/25 02:39:47;;;;;;;;;;;;;;;22.45;60.67;101321.30;1766724;79;20307;-55
2021/05/25 02:42:13;;;;;;;;;;;;;;;22.49;60.70;101328.63;1766111;79;20236;-55
2021/05/25 02:44:39;;;;;;;;;;;;;;;22.54;60.73;101326.30;1767469;79;20351;-55
2021/05/25 02:47:05;;;;;;;;;;;;;;;22.58;60.74;101332.27;1766480;79;21048;-56
2021/05/25 02:49:31;;;;;;;;;;;;;;;22.63;60.72;101336.88;1766719;79;20253;-56
2021/05/25 02:51:57;;;;;;;;;;;;;;;22.66;60.71;101339.03;1767950;80;20276;-55
2021/05/25 02:54:23;;;;;;;;;;;;;;;22.71;60.67;101343.88;1767479;79;21855;-53
2021/05/25 02:56:50;;;;;;;;;;;;;;;22.74;60.66;101351.55;1767967;79;20192;-54
2021/05/25 02:59:15;;;;;;;;;;;;;;;22.76;60.62;101351.25;1766182;79;21216;-54
2021/05/25 03:01:41;;;;;;;;;;;;;;;22.77;60.56;101354.28;1767105;79;20312;-56
2021/05/25 03:04:07;;;;;;;;;;;;;;;22.78;60.51;101352.33;1768112;79;20656;-55
2021/05/25 03:06:33;;;;;;;;;;;;;;;22.75;60.46;101356.53;1745625;80;20697;-55
2021/05/25 03:08:59;;;;;;;;;;;;;;;22.74;60.40;101350.17;1769898;79;20244;-54
2021/05/25 03:11:27;;;;;;;;;;;;;;;22.73;60.36;101356.88;1770597;79;21165;-54
2021/05/25 03:13:53;;;;;;;;;;;;;;;22.71;60.31;101356.93;1775867;79;20151;-55
2021/05/25 03:16:19;;;;;;;;;;;;;;;22.66;60.29;101359.23;1768431;79;20227;-54
2021/05/25 03:18:45;;;;;;;;;;;;;;;22.64;60.27;101357.36;1771985;79;22017;-55
2021/05/25 03:21:11;;;;;;;;;;;;;;;22.60;60.27;101354.98;1771638;79;20211;-54
2021/05/25 03:23:37;;;;;;;;;;;;;;;22.58;60.26;101353.64;1770377;79;21620;-56
2021/05/25 03:26:03;;;;;;;;;;;;;;;22.54;60.26;101356.23;1774651;79;20262;-54
2021/05/25 03:28:29;;;;;;;;;;;;;;;22.52;60.26;101350.20;1771687;79;20268;-55
2021/05/25 03:30:55;;;;;;;;;;;;;;;22.50;60.28;101346.09;1768615;79;20718;-54
2021/05/25 03:33:21;;;;;;;;;;;;;;;22.46;60.28;101333.44;1769735;79;20203;-55
2021/05/25 03:35:47;;;;;;;;;;;;;;;22.44;60.29;101327.97;1770429;79;21119;-55
2021/05/25 03:38:13;;;;;;;;;;;;;;;22.42;60.32;101318.57;1769291;79;20221;-55
2021/05/25 03:40:39;;;;;;;;;;;;;;;22.40;60.33;101323.64;1769089;79;20291;-55
2021/05/25 03:43:05;;;;;;;;;;;;;;;22.38;60.35;101331.44;1772754;79;20299;-53
2021/05/25 03:45:31;;;;;;;;;;;;;;;22.37;60.36;101327.58;1770474;79;20247;-55
2021/05/25 03:47:57;;;;;;;;;;;;;;;22.35;60.37;101340.39;1769601;79;21157;-55
2021/05/25 03:50:23;;;;;;;;;;;;;;;22.32;60.39;101339.62;1768140;79;20192;-57
2021/05/25 03:52:51;;;;;;;;;;;;;;;22.31;60.41;101356.02;1773097;79;20680;-57
2021/05/25 04:00:48;;;;;;;;;;;;;;;22.30;60.56;101384.31;1773062;79;21335;-56
2021/05/25 04:03:14;;;;;;;;;;;;;;;22.32;60.60;101391.73;1768740;79;20294;-57
2021/05/25 04:05:40;;;;;;;;;;;;;;;22.32;60.62;101395.88;1769730;79;20271;-57
2021/05/25 04:08:06;;;;;;;;;;;;;;;22.36;60.66;101383.63;1770120;79;20560;-56
2021/05/25 04:10:32;;;;;;;;;;;;;;;22.38;60.71;101373.02;1769552;79;20689;-57
2021/05/25 04:12:58;;;;;;;;;;;;;;;22.40;60.76;101377.70;1742635;81;21812;-56
2021/05/25 04:15:24;;;;;;;;;;;;;;;22.43;60.79;101379.00;1728902;82;20383;-56
2021/05/25 04:17:53;;;;;;;;;;;;;;;22.46;60.84;101379.75;1745120;81;20321;-58
2021/05/25 04:20:19;;;;;;;;;;;;;;;22.48;60.91;101384.42;1757538;80;20312;-57
2021/05/25 04:22:46;;;;;;;;;;;;;;;22.51;60.98;101381.02;1717129;82;20597;-56
2021/05/25 04:25:12;;;;;;;;;;;;;;;22.54;61.03;101370.66;1753112;81;21115;-56
2021/05/25 04:27:38;;;;;;;;;;;;;;;22.58;61.12;101363.34;1751944;81;20360;-56
2021/05/25 04:30:05;;;;;;;;;;;;;;;22.63;61.23;101359.88;1740518;81;20288;-55
2021/05/25 04:32:32;;;;;;;;;;;;;;;22.70;61.35;101364.42;1723836;82;20677;-57
2021/05/25 04:34:58;;;;;;;;;;;;;;;22.74;61.44;101364.03;1723574;82;20295;-57
2021/05/25 04:37:24;;;;;;;;;;;;;;;22.80;61.54;101372.23;1759399;80;21142;-58
2021/05/25 04:39:50;;;;;;;;;;;;;;;22.86;61.62;101370.97;1750636;80;20236;-57
2021/05/25 04:42:16;;;;;;;;;;;;;;;22.91;61.74;101376.37;1771963;79;20382;-55
2021/05/25 04:44:42;;;;;;;;;;;;;;;22.96;61.78;101378.98;1771598;79;20531;-57
2021/05/25 04:47:08;;;;;;;;;;;;;;;23.00;61.80;101382.79;1764301;79;20686;-57
2021/05/25 04:49:36;;;;;;;;;;;;;;;23.05;61.79;101389.56;1771137;79;21734;-57
2021/05/25 04:52:03;;;;;;;;;;;;;;;23.08;61.76;101396.70;1772014;79;20235;-57
2021/05/25 04:54:29;;;;;;;;;;;;;;;23.10;61.72;101406.91;1773528;79;20505;-57
2021/05/25 04:56:55;;;;;;;;;;;;;;;23.12;61.73;101411.58;1769667;79;20581;-57
2021/05/25 04:59:21;;;;;;;;;;;;;;;23.14;61.68;101412.06;1771416;79;20253;-57
2021/05/25 05:01:47;;;;;;;;;;;;;;;23.16;61.62;101424.24;1773233;79;23265;-57
2021/05/25 05:04:13;;;;;;;;;;;;;;;23.16;61.54;101426.45;1769890;79;20192;-57
2021/05/25 05:06:39;;;;;;;;;;;;;;;23.17;61.49;101430.02;1771204;79;20208;-57
2021/05/25 05:09:05;;;;;;;;;;;;;;;23.18;61.41;101441.38;1772015;79;20246;-57
2021/05/25 05:11:31;;;;;;;;;;;;;;;23.18;61.38;101442.77;1772923;79;20279;-57
2021/05/25 05:13:58;;;;;;;;;;;;;;;23.17;61.32;101439.73;1773685;79;21106;-56
2021/05/25 05:16:24;;;;;;;;;;;;;;;23.16;61.27;101435.34;1768740;80;20236;-57
2021/05/25 05:18:50;;;;;;;;;;;;;;;23.14;61.25;101434.83;1779240;79;20228;-57
2021/05/25 05:21:16;;;;;;;;;;;;;;;23.11;61.19;101430.75;1770560;79;20316;-56
2021/05/25 05:23:42;;;;;;;;;;;;;;;23.10;61.16;101431.88;1774841;79;20769;-57
2021/05/25 05:26:08;;;;;;;;;;;;;;;23.09;61.14;101444.69;1770117;79;21645;-56
2021/05/25 05:28:35;;;;;;;;;;;;;;;23.05;61.14;101451.44;1769463;79;20274;-57
2021/05/25 05:31:01;;;;;;;;;;;;;;;23.03;61.13;101460.67;1772499;79;20307;-57
2021/05/25 05:33:27;;;;;;;;;;;;;;;23.00;61.14;101460.50;1769924;79;20271;-57
2021/05/25 05:35:54;;;;;;;;;;;;;;;22.98;61.14;101455.25;1773849;79;20681;-56
2021/05/25 05:38:20;;;;;;;;;;;;;;;22.96;61.15;101453.91;1773275;79;20902;-57
2021/05/25 05:40:46;;;;;;;;;;;;;;;22.94;61.17;101469.52;1774709;79;21609;-57
2021/05/25 05:43:12;;;;;;;;;;;;;;;22.94;61.17;101475.06;1771431;79;20225;-57
2021/05/25 05:45:39;;;;;;;;;;;;;;;22.93;61.17;101461.50;1772199;79;20202;-57
2021/05/25 05:48:06;;;;;;;;;;;;;;;22.92;61.17;101454.30;1767479;79;20565;-57
2021/05/25 05:50:32;;;;;;;;;;;;;;;22.90;61.17;101440.77;1770357;79;21171;-57
2021/05/25 05:52:58;;;;;;;;;;;;;;;22.90;61.18;101428.84;1774703;79;20182;-57
2021/05/25 05:55:25;;;;;;;;;;;;;;;22.89;61.17;101417.48;1769367;79;20266;-57
2021/05/25 05:57:52;;;;;;;;;;;;;;;22.88;61.16;101402.79;1767515;79;20263;-57
2021/05/25 06:00:19;;;;;;;;;;;;;;;22.88;61.19;101396.42;1774918;79;20214;-56
2021/05/25 06:02:45;;;;;;;;;;;;;;;22.87;61.16;101390.64;1772597;79;21153;-57
2021/05/25 06:05:12;;;;;;;;;;;;;;;22.86;61.17;101387.61;1775690;79;20152;-56
2021/05/25 06:07:38;;;;;;;;;;;;;;;22.84;61.17;101389.87;1749597;80;20228;-56
2021/05/25 06:10:05;;;;;;;;;;;;;;;22.83;61.19;101390.44;1776634;79;20263;-56
2021/05/25 06:12:31;;;;;;;;;;;;;;;22.82;61.19;101406.86;1773828;79;20518;-57
2021/05/25 06:14:57;;;;;;;;;;;;;;;22.82;61.19;101421.30;1767566;79;21967;-56
2021/05/25 06:17:23;;;;;;;;;;;;;;;22.80;61.20;101442.41;1772325;79;20286;-57
2021/05/25 06:19:49;;;;;;;;;;;;;;;22.82;61.20;101462.91;1771147;80;20267;-56
2021/05/25 06:22:15;;;;;;;;;;;;;;;22.81;61.20;101466.81;1774258;79;20218;-56
2021/05/25 06:24:41;;;;;;;;;;;;;;;22.81;61.18;101460.70;1775808;79;20178;-57
2021/05/25 06:27:07;;;;;;;;;;;;;;;22.82;61.18;101444.31;1774222;79;21054;-56
2021/05/25 06:29:33;;;;;;;;;;;;;;;22.82;61.15;101449.03;1770319;79;20186;-57
2021/05/25 06:32:00;;;;;;;;;;;;;;;22.83;61.15;101449.30;1770866;79;20211;-57
2021/05/25 06:34:28;;;;;;;;;;;;;;;22.83;61.14;101438.98;1772810;79;20200;-57
2021/05/25 06:36:55;;;;;;;;;;;;;;;22.83;61.13;101431.27;1775577;79;20580;-56
2021/05/25 06:39:21;;;;;;;;;;;;;;;22.82;61.11;101415.18;1774422;79;21744;-57
2021/05/25 06:41:47;;;;;;;;;;;;;;;22.83;61.11;101427.10;1775759;79;20172;-57
2021/05/25 06:44:13;;;;;;;;;;;;;;;22.83;61.08;101420.16;1777471;79;20270;-57
2021/05/25 06:46:40;;;;;;;;;;;;;;;22.83;61.11;101412.63;1776232;79;20222;-56
2021/05/25 06:49:06;;;;;;;;;;;;;;;22.84;61.09;101410.68;1774867;79;20356;-57
2021/05/25 06:51:32;;;;;;;;;;;;;;;22.85;61.08;101392.91;1769656;79;23105;-57
2021/05/25 06:53:58;;;;;;;;;;;;;;;22.89;61.02;101386.97;1775784;79;20230;-56
2021/05/25 06:56:24;;;;;;;;;;;;;;;22.92;61.02;101378.81;1770266;79;20256;-56
2021/05/25 06:58:50;;;;;;;;;;;;;;;22.95;61.02;101360.73;1777712;79;20681;-56
2021/05/25 07:01:16;;;;;;;;;;;;;;;23.01;61.04;101352.48;1773046;79;20713;-56
2021/05/25 07:03:42;;;;;;;;;;;;;;;23.06;61.04;101357.91;1774697;79;23285;-57
2021/05/25 07:06:08;;;;;;;;;;;;;;;23.11;61.04;101361.36;1756068;79;21594;-57
2021/05/25 07:08:34;;;;;;;;;;;;;;;23.16;61.01;101357.06;1744914;80;20305;-57
2021/05/25 07:11:00;;;;;;;;;;;;;;;23.21;60.99;101348.55;1748171;80;21913;-56
2021/05/25 07:13:26;;;;;;;;;;;;;;;23.27;60.95;101340.91;1745136;80;20208;-57
2021/05/25 07:15:52;;;;;;;;;;;;;;;23.32;60.92;101338.55;1748632;81;20993;-56
2021/05/25 07:18:18;;;;;;;;;;;;;;;23.34;60.88;101344.02;1742009;80;20513;-57
2021/05/25 07:20:47;;;;;;;;;;;;;;;23.36;60.82;101333.98;1745036;80;20571;-57
2021/05/25 07:23:13;;;;;;;;;;;;;;;23.38;60.79;101330.33;1746660;80;20321;-57
2021/05/25 07:25:39;;;;;;;;;;;;;;;23.40;60.72;101322.48;1746440;80;20296;-57
2021/05/25 07:28:05;;;;;;;;;;;;;;;23.40;60.65;101315.53;1746428;80;23202;-56
2021/05/25 07:30:31;;;;;;;;;;;;;;;23.41;60.60;101318.56;1740822;80;20321;-56
2021/05/25 07:32:57;;;;;;;;;;;;;;;23.41;60.52;101312.45;1748104;80;20219;-56
2021/05/25 07:35:23;;;;;;;;;;;;;;;23.42;60.49;101303.55;1748365;80;20224;-56
2021/05/25 07:37:49;;;;;;;;;;;;;;;23.41;60.44;101294.39;1746281;80;20212;-57
2021/05/25 07:40:16;;;;;;;;;;;;;;;23.41;60.39;101286.62;1745149;80;21032;-56
2021/05/25 07:42:43;;;;;;;;;;;;;;;23.40;60.36;101285.81;1747211;81;20249;-57
2021/05/25 07:45:10;;;;;;;;;;;;;;;23.39;60.32;101280.00;1748366;80;20494;-56
2021/05/25 07:47:36;;;;;;;;;;;;;;;23.37;60.29;101282.30;1747351;80;20261;-56
2021/05/25 07:50:13;;;;;;;;;;;;;;;23.35;60.27;101280.97;1745142;80;20545;-57
2021/05/25 07:52:48;;;;;;;;;;;;;;;23.32;60.26;101285.23;1747910;80;21794;-56
2021/05/25 07:55:14;;;;;;;;;;;;;;;23.30;60.26;101293.05;1745282;80;20267;-57
2021/05/25 07:57:41;;;;;;;;;;;;;;;23.27;60.26;101306.20;1747844;80;20190;-57
2021/05/25 08:00:11;;;;;;;;;;;;;;;23.23;60.24;101315.75;1749076;80;21940;-56
2021/05/25 08:02:37;;;;;;;;;;;;;;;23.21;60.26;101328.33;1748119;80;20209;-56
2021/05/25 08:05:04;;;;;;;;;;;;;;;23.17;60.28;101342.02;1748305;80;23176;-56
2021/05/25 08:07:30;;;;;;;;;;;;;;;23.16;60.30;101345.13;1768350;80;20286;-57
2021/05/25 08:09:56;;;;;;;;;;;;;;;23.12;60.31;101355.24;1750798;80;20194;-56
2021/05/25 08:12:22;;;;;;;;;;;;;;;23.10;60.34;101372.20;1730611;82;20683;-57
2021/05/25 08:14:48;;;;;;;;;;;;;;;23.08;60.34;101384.22;1768445;80;20213;-57
2021/05/25 08:17:22;;;;;;;;;;;;;;;23.05;60.37;101386.78;1725380;82;21171;-56
2021/05/25 08:19:47;;;;;;;;;;;;;;;23.04;60.41;101375.46;1766719;80;20256;-57
2021/05/25 08:22:13;;;;;;;;;;;;;;;23.01;60.43;101351.10;1750124;81;20217;-56
2021/05/25 08:24:39;;;;;;;;;;;;;;;22.99;60.43;101338.13;1749937;81;21982;-57
2021/05/25 08:27:05;;;;;;;;;;;;;;;22.99;60.45;101336.75;1745629;80;20284;-56
2021/05/25 08:29:31;;;;;;;;;;;;;;;22.95;60.47;101331.03;1747377;80;21174;-57
2021/05/25 08:31:57;;;;;;;;;;;;;;;22.92;60.50;101334.42;1754706;80;20251;-56
2021/05/25 08:34:24;;;;;;;;;;;;;;;22.92;60.51;101337.76;1747209;80;20560;-56
2021/05/25 08:36:51;;;;;;;;;;;;;;;22.90;60.53;101345.60;1747390;81;21847;-56
2021/05/25 08:39:17;;;;;;;;;;;;;;;22.88;60.58;101354.80;1756007;81;20310;-56
2021/05/25 08:41:43;;;;;;;;;;;;;;;22.87;60.59;101354.58;1747711;81;21097;-56
2021/05/25 08:44:09;;;;;;;;;;;;;;;22.85;60.61;101337.41;1749053;81;20487;-56
2021/05/25 08:46:37;;;;;;;;;;;;;;;22.84;60.62;101338.55;1755012;80;20594;-56
2021/05/25 08:49:03;;;;;;;;;;;;;;;22.82;60.63;101333.34;1745636;81;20314;-56
2021/05/25 08:51:30;;;;;;;;;;;;;;;22.81;60.64;101341.41;1751625;81;20262;-56
2021/05/25 08:53:57;;;;;;;;;;;;;;;22.80;60.66;101350.03;1732840;82;21121;-56
2021/05/25 08:56:23;;;;;;;;;;;;;;;22.79;60.67;101351.20;1771615;80;20183;-57
2021/05/25 08:58:49;;;;;;;;;;;;;;;22.78;60.68;101342.62;1769006;80;20258;-56
2021/05/25 09:01:16;;;;;;;;;;;;;;;22.75;60.69;101328.23;1771769;80;37919;-56
2021/05/25 09:03:58;;;;;;;;;;;;;;;22.75;60.69;101305.22;1768782;80;20335;-56
2021/05/25 09:06:44;;;;;;;;;;;;;;;22.73;60.70;101301.40;1749973;79;21842;-56
2021/05/25 09:09:12;;;;;;;;;;;;;;;22.72;60.71;101327.49;1731667;81;20253;-56
2021/05/25 09:12:04;;;;;;;;;;;;;;;22.71;60.70;101356.36;1737455;81;20281;-56
2021/05/25 09:14:32;;;;;;;;;;;;;;;22.71;60.72;101362.48;1736876;81;20202;-56
2021/05/25 09:17:22;;;;;;;;;;;;;;;22.68;60.73;101361.14;1741880;81;20221;-57
2021/05/25 09:19:50;;;;;;;;;;;;;;;22.68;60.74;101360.31;1735497;81;21206;-56
2021/05/25 09:22:38;;;;;;;;;;;;;;;22.66;60.74;101345.96;1725257;81;20221;-56
2021/05/25 09:25:18;;;;;;;;;;;;;;;22.70;60.74;101329.75;1736633;81;20522;-56
2021/05/25 09:27:57;;;;;;;;;;;;;;;22.70;60.72;101280.42;1732799;81;20276;-56
2021/05/25 09:30:21;;;;;;;;;;;;;;;22.72;60.74;101253.16;1732897;81;20300;-56
2021/05/25 09:32:52;;;;;;;;;;;;;;;22.74;60.77;101221.18;1737176;81;21090;-56
2021/05/25 09:35:21;;;;;;;;;;;;;;;22.75;60.82;101170.69;1734208;81;21564;-56
2021/05/25 09:37:49;;;;;;;;;;;;;;;22.78;60.86;101162.30;1734299;81;20221;-56
2021/05/25 09:40:16;;;;;;;;;;;;;;;22.81;60.88;101175.52;1735220;81;20269;-58
2021/05/25 09:42:44;;;;;;;;;;;;;;;22.83;60.89;101172.66;1737621;81;20277;-58
2021/05/25 09:45:15;;;;;;;;;;;;;;;22.86;60.90;101169.25;1738336;81;21259;-56
2021/05/25 09:47:43;;;;;;;;;;;;;;;22.89;60.89;101144.19;1736559;81;20288;-57
2021/05/25 09:50:11;;;;;;;;;;;;;;;22.91;60.87;101116.95;1736003;81;20231;-57
2021/05/25 09:52:58;;;;;;;;;;;;;;;22.91;60.87;101119.16;1737072;81;20510;-56
2021/05/25 09:55:24;;;;;;;;;;;;;;;22.92;60.88;101124.11;1732630;81;20272;-57
2021/05/25 09:57:56;;;;;;;;;;;;;;;22.92;60.84;101123.55;1740336;81;23272;-56
2021/05/25 10:00:31;;;;;;;;;;;;;;;22.92;60.79;101122.16;1739434;81;20901;-56
2021/05/25 10:03:04;;;;;;;;;;;;;;;22.92;60.76;101108.85;1733051;81;20324;-56
2021/05/25 10:05:31;;;;;;;;;;;;;;;22.92;60.74;101100.53;1739341;81;21903;-56
2021/05/25 10:07:59;;;;;;;;;;;;;;;22.88;60.70;101069.85;1762077;79;20254;-56
2021/05/25 10:10:26;;;;;;;;;;;;;;;22.88;60.68;101031.58;1763355;79;21092;-57
2021/05/25 10:12:53;;;;;;;;;;;;;;;22.86;60.65;100977.01;1763940;79;21595;-56
2021/05/25 10:15:19;;;;;;;;;;;;;;;22.83;60.62;100952.11;1761472;80;20290;-56
2021/05/25 10:17:57;;;;;;;;;;;;;;;22.83;60.62;100958.25;1763286;80;20298;-57
2021/05/25 10:20:13;;;;;;;;;;;;;;;22.79;60.64;100960.84;1762158;80;20294;-56
2021/05/25 10:22:39;;;;;;;;;;;;;;;22.77;60.64;100960.38;1762842;80;21294;-57
2021/05/25 10:25:11;;;;;;;;;;;;;;;22.75;60.66;100993.98;1766578;80;20411;-56
2021/05/25 10:27:37;;;;;;;;;;;;;;;22.74;60.65;101013.74;1762554;80;20221;-56
2021/05/25 10:30:04;;;;;;;;;;;;;;;22.72;60.66;101019.60;1762537;80;20256;-57
2021/05/25 10:32:30;;;;;;;;;;;;;;;22.71;60.68;101012.42;1763422;80;20220;-57
2021/05/25 10:34:56;;;;;;;;;;;;;;;22.72;60.67;101026.54;1761076;80;21153;-57
2021/05/25 10:37:22;;;;;;;;;;;;;;;22.71;60.68;101042.93;1763728;80;20268;-57
2021/05/25 10:39:55;;;;;;;;;;;;;;;22.73;60.69;101057.87;1764740;80;20234;-57
2021/05/25 10:42:26;;;;;;;;;;;;;;;22.72;60.71;101043.18;1764477;80;20628;-57
2021/05/25 10:45:11;;;;;;;;;;;;;;;22.73;60.69;101040.66;1760833;80;20325;-57
2021/05/25 10:47:42;;;;;;;;;;;;;;;22.75;60.69;101084.69;1768474;80;21063;-57
2021/05/25 10:50:16;;;;;;;;;;;;;;;22.75;60.68;101140.99;1762455;80;20208;-57
2021/05/25 10:52:42;;;;;;;;;;;;;;;22.76;60.68;101163.44;1763166;80;20280;-57
2021/05/25 10:55:08;;;;;;;;;;;;;;;22.78;60.66;101153.98;1739047;80;20205;-57
2021/05/25 10:57:47;;;;;;;;;;;;;;;22.78;60.63;101129.02;1739844;80;21025;-57
2021/05/25 11:00:15;;;;;;;;;;;;;;;22.78;60.64;101117.35;1764396;80;21848;-57
2021/05/25 11:02:51;;;;;;;;;;;;;;;22.77;60.62;101107.39;1762423;80;20616;-57
2021/05/25 11:05:37;;;;;;;;;;;;;;;22.79;60.61;101104.30;1761718;80;20225;-56
2021/05/25 11:08:17;;;;;;;;;;;;;;;22.78;60.62;101110.98;1764509;79;21771;-57
2021/05/25 11:10:53;;;;;;;;;;;;;;;22.78;60.60;101120.69;1767021;79;20473;-57
2021/05/25 11:13:21;;;;;;;;;;;;;;;22.78;60.61;101120.12;1765652;79;21082;-57
2021/05/25 11:16:09;;;;;;;;;;;;;;;22.82;60.62;101134.16;1764953;80;20472;-57
2021/05/25 11:18:41;;;;;;;;;;;;;;;22.82;60.61;101141.91;1766340;79;20260;-57
2021/05/25 11:23:44;;;;;;;;;;;;;;;22.87;60.56;101150.66;1767902;79;20249;-57
2021/05/25 11:26:10;;;;;;;;;;;;;;;22.89;60.52;101138.64;1769047;79;21284;-58
2021/05/25 11:29:13;;;;;;;;;;;;;;;22.91;60.50;101123.32;1764643;79;20179;-57
2021/05/25 11:31:39;;;;;;;;;;;;;;;22.94;60.47;101125.44;1766801;80;20275;-57
2021/05/25 11:34:06;;;;;;;;;;;;;;;22.97;60.43;101121.18;1767049;79;20233;-57
2021/05/25 11:36:32;;;;;;;;;;;;;;;23.00;60.40;101115.00;1766257;80;20525;-58
2021/05/25 11:38:58;;;;;;;;;;;;;;;23.02;60.36;101101.60;1769260;79;21139;-58
2021/05/25 11:41:23;;;;;;;;;;;;;;;23.03;60.35;101100.47;1769889;79;20221;-57
2021/05/25 11:44:02;;;;;;;;;;;;;;;23.05;60.33;101086.49;1771463;79;20264;-57
2021/05/25 11:46:46;;;;;;;;;;;;;;;23.07;60.30;101080.06;1761731;79;20238;-57
2021/05/25 11:49:13;;;;;;;;;;;;;;;23.11;60.27;101078.26;1738201;81;20219;-57
2021/05/25 11:51:39;;;;;;;;;;;;;;;23.13;60.24;101084.84;1766243;79;21690;-57
2021/05/25 11:54:12;;;;;;;;;;;;;;;23.16;60.23;101085.03;1767673;79;20285;-57
2021/05/25 11:56:39;;;;;;;;;;;;;;;23.19;60.21;101084.94;1767329;79;20286;-57
2021/05/25 11:59:14;;;;;;;;;;;;;;;23.22;60.16;101074.55;1764639;79;20299;-57
2021/05/25 12:01:45;;;;;;;;;;;;;;;23.26;60.14;101069.16;1762900;79;20467;-57
2021/05/25 12:04:12;;;;;;;;;;;;;;;23.29;60.11;101055.46;1767041;79;21074;-58
2021/05/25 12:06:58;;;;;;;;;;;;;;;23.31;60.08;101053.72;1767165;79;20223;-57
2021/05/25 12:09:28;;;;;;;;;;;;;;;23.35;60.06;101061.63;1770259;79;20226;-57
2021/05/25 12:11:57;;;;;;;;;;;;;;;23.40;60.03;101063.67;1772173;79;20232;-57
2021/05/25 12:14:28;;;;;;;;;;;;;;;23.48;59.95;101055.10;1769955;79;20279;-57
2021/05/25 12:16:56;;;;;;;;;;;;;;;23.53;59.91;101051.58;1772849;79;21806;-56
2021/05/25 12:19:22;;;;;;;;;;;;;;;23.60;59.91;101049.66;1771247;79;20299;-58
2021/05/25 12:21:48;;;;;;;;;;;;;;;23.66;59.91;101047.78;1771774;79;20553;-57
2021/05/25 12:24:14;;;;;;;;;;;;;;;23.75;59.91;101034.42;1770022;79;20353;-57
2021/05/25 12:26:47;;;;;;;;;;;;;;;23.82;59.90;101027.77;1771943;79;20263;-57
2021/05/25 12:29:13;;;;;;;;;;;;;;;23.88;59.86;101023.66;1769214;79;21054;-57
2021/05/25 12:31:41;;;;;;;;;;;;;;;23.95;59.84;101023.94;1775772;79;20327;-57
2021/05/25 12:34:07;;;;;;;;;;;;;;;24.01;59.78;101027.60;1771528;79;20240;-57
2021/05/25 12:36:41;;;;;;;;;;;;;;;24.08;59.73;101027.06;1774766;79;20262;-57
2021/05/25 12:39:09;;;;;;;;;;;;;;;24.12;59.68;101016.90;1773947;79;20195;-58
2021/05/25 12:41:43;;;;;;;;;;;;;;;24.18;59.60;101024.51;1775171;79;22549;-57
2021/05/25 12:44:10;;;;;;;;;;;;;;;24.21;59.51;101019.66;1769654;79;20600;-57
2021/05/25 12:46:59;;;;;;;;;;;;;;;24.24;59.41;101022.57;1771127;79;20513;-58